Time;durP1;ratioP1;P1;durP2;ratioP2;P2;SDS_P1;SDS_P2;PMS_P1;PMS_P2;Temp;Humidity;BMP_temperature;BMP_pressure;BME280_temperature;BME280_humidity;BME280_pressure;Samples;Min_cycle;Max_cycle;Signal;HPM_P1;HPM_P2
2020/12/09 00:02:13;;;;;;;20.00;17.95;;;1.30;80.10;;;;;;5086388;29;20414;-81
2020/12/09 00:04:45;;;;;;;20.33;18.33;;;1.30;80.20;;;;;;5069067;29;20510;-79
2020/12/09 00:07:17;;;;;;;19.92;17.85;;;1.30;80.30;;;;;;5094250;29;20064;-80
2020/12/09 00:09:49;;;;;;;20.90;18.80;;;1.30;80.30;;;;;;5098946;29;20135;-80
2020/12/09 00:12:21;;;;;;;21.02;18.92;;;1.30;80.00;;;;;;5097504;29;20430;-80
2020/12/09 00:14:52;;;;;;;21.85;19.65;;;1.30;80.30;;;;;;5097478;29;20067;-81
2020/12/09 00:17:24;;;;;;;20.80;18.80;;;1.30;80.40;;;;;;5100918;29;20048;-84
2020/12/09 00:19:56;;;;;;;21.10;18.95;;;1.30;80.40;;;;;;5094382;29;20067;-84
2020/12/09 00:22:27;;;;;;;22.15;19.95;;;1.30;80.60;;;;;;5106244;29;20494;-84
2020/12/09 00:24:58;;;;;;;21.48;19.20;;;1.30;80.80;;;;;;5113800;28;20942;-84
2020/12/09 00:27:32;;;;;;;20.92;18.80;;;1.20;80.80;;;;;;5103340;29;20537;-81
2020/12/09 00:30:07;;;;;;;21.17;19.08;;;1.20;80.80;;;;;;5099827;29;20066;-82
2020/12/09 00:32:38;;;;;;;21.95;19.65;;;1.20;81.00;;;;;;5099398;29;20055;-82
2020/12/09 00:35:10;;;;;;;21.38;19.30;;;1.10;81.40;;;;;;5095926;29;20461;-81
2020/12/09 00:37:42;;;;;;;21.55;19.25;;;1.10;81.40;;;;;;5111444;28;20051;-81
2020/12/09 00:40:13;;;;;;;21.42;19.23;;;1.10;81.40;;;;;;5098627;29;20043;-82
2020/12/09 00:42:45;;;;;;;20.95;18.88;;;1.10;81.20;;;;;;5099316;29;20469;-79
2020/12/09 00:45:16;;;;;;;20.63;18.63;;;1.10;81.10;;;;;;5103894;29;20091;-81
2020/12/09 00:47:48;;;;;;;20.90;18.83;;;1.10;81.20;;;;;;5082416;29;20052;-81
2020/12/09 00:53:02;;;;;;;20.55;18.55;;;1.20;81.10;;;;;;5098427;29;20044;-82
2020/12/09 00:55:34;;;;;;;19.55;17.55;;;1.10;81.60;;;;;;5097741;29;20089;-82
2020/12/09 00:58:07;;;;;;;21.10;18.88;;;1.20;80.80;;;;;;5098508;29;20047;-81
2020/12/09 01:00:39;;;;;;;20.45;18.45;;;1.20;80.90;;;;;;5099025;29;20107;-81
2020/12/09 01:03:19;;;;;;;20.83;18.83;;;1.20;80.80;;;;;;5104606;29;20048;-82
2020/12/09 01:05:51;;;;;;;21.10;19.00;;;1.20;80.60;;;;;;5100134;29;20521;-82
2020/12/09 01:08:22;;;;;;;21.67;19.40;;;1.20;80.40;;;;;;5096991;29;20054;-81
2020/12/09 01:10:55;;;;;;;21.52;19.25;;;1.20;80.40;;;;;;5099215;29;20079;-81
2020/12/09 01:13:26;;;;;;;22.50;20.00;;;1.20;80.40;;;;;;5086167;29;20048;-81
2020/12/09 01:15:58;;;;;;;23.00;20.48;;;1.20;80.40;;;;;;5095094;29;20509;-81
2020/12/09 01:18:29;;;;;;;22.25;19.88;;;1.30;80.40;;;;;;5111837;28;20059;-81
2020/12/09 01:21:01;;;;;;;22.73;20.27;;;1.20;80.30;;;;;;5097469;29;20043;-81
2020/12/09 01:23:32;;;;;;;23.05;20.55;;;1.20;80.20;;;;;;5115021;28;20056;-82
2020/12/09 01:26:11;;;;;;;23.30;20.80;;;1.30;80.30;;;;;;5100293;29;20053;-81
2020/12/09 01:28:43;;;;;;;22.48;20.17;;;1.30;80.10;;;;;;5098420;29;20130;-81
2020/12/09 01:31:21;;;;;;;21.30;19.13;;;1.30;80.00;;;;;;5081967;29;20044;-80
2020/12/09 01:33:53;;;;;;;22.52;20.23;;;1.30;80.30;;;;;;5097162;29;20040;-81
2020/12/09 01:36:25;;;;;;;22.30;19.98;;;1.20;80.10;;;;;;5092173;29;20047;-82
2020/12/09 01:38:56;;;;;;;21.73;19.38;;;1.20;80.00;;;;;;5098271;29;20067;-81
2020/12/09 01:41:28;;;;;;;23.48;21.08;;;1.20;80.00;;;;;;5092837;29;20040;-82
2020/12/09 01:43:59;;;;;;;22.25;19.95;;;1.30;80.00;;;;;;5106771;28;20079;-81
2020/12/09 01:46:32;;;;;;;21.88;19.58;;;1.30;80.00;;;;;;5099096;29;20091;-81
2020/12/09 01:49:04;;;;;;;22.05;19.75;;;1.20;79.90;;;;;;5110892;28;20039;-82
2020/12/09 01:51:36;;;;;;;21.63;19.42;;;1.20;80.00;;;;;;5095753;29;20111;-81
2020/12/09 01:54:07;;;;;;;22.02;19.83;;;1.20;80.10;;;;;;5092525;29;20052;-81
2020/12/09 01:56:38;;;;;;;22.10;19.70;;;1.20;80.10;;;;;;5093531;29;20047;-80
2020/12/09 01:59:10;;;;;;;22.73;20.42;;;1.20;80.40;;;;;;5092570;29;20043;-81
2020/12/09 02:01:41;;;;;;;21.63;19.42;;;1.20;80.10;;;;;;5108433;28;20953;-81
2020/12/09 02:04:13;;;;;;;21.30;19.15;;;1.20;80.20;;;;;;5091802;29;20044;-81
2020/12/09 02:06:45;;;;;;;21.67;19.48;;;1.20;80.10;;;;;;5096976;29;20043;-82
2020/12/09 02:09:16;;;;;;;23.80;21.17;;;1.20;80.40;;;;;;5101455;29;20115;-85
2020/12/09 02:11:50;;;;;;;23.77;21.23;;;1.20;80.40;;;;;;5079823;29;20047;-83
2020/12/09 02:14:22;;;;;;;22.77;20.38;;;1.20;80.30;;;;;;5105035;28;20076;-83
2020/12/09 02:16:56;;;;;;;24.80;22.30;;;1.10;80.40;;;;;;5092028;29;20051;-83
2020/12/09 02:19:28;;;;;;;22.90;20.58;;;1.10;80.40;;;;;;5087999;29;20123;-83
2020/12/09 02:22:12;;;;;;;23.38;20.88;;;1.20;80.60;;;;;;5104738;28;20075;-83
2020/12/09 02:24:43;;;;;;;23.27;20.77;;;1.20;80.40;;;;;;5092319;29;20157;-81
2020/12/09 02:27:15;;;;;;;24.58;21.98;;;1.20;80.60;;;;;;5101754;28;20501;-84
2020/12/09 02:29:46;;;;;;;25.33;22.02;;;1.20;80.60;;;;;;5090313;29;20056;-81
2020/12/09 02:32:18;;;;;;;24.25;21.67;;;1.10;80.60;;;;;;5093616;29;20103;-82
2020/12/09 02:34:49;;;;;;;24.55;21.73;;;1.10;80.70;;;;;;5084369;29;20075;-84
2020/12/09 02:37:21;;;;;;;24.80;21.60;;;1.10;80.80;;;;;;5123501;28;20170;-83
2020/12/09 02:39:52;;;;;;;24.70;22.05;;;1.10;80.70;;;;;;5116400;29;20473;-83
2020/12/09 02:42:24;;;;;;;24.73;21.58;;;1.10;80.60;;;;;;5112182;29;20044;-83
2020/12/09 02:44:56;;;;;;;23.38;20.92;;;1.20;80.60;;;;;;5114256;29;20044;-83
2020/12/09 02:47:27;;;;;;;24.73;22.02;;;1.20;80.60;;;;;;5102669;29;20044;-82
2020/12/09 02:50:00;;;;;;;23.23;20.75;;;1.20;80.30;;;;;;5095845;29;20087;-82
2020/12/09 02:52:31;;;;;;;24.40;21.85;;;1.20;80.50;;;;;;5102311;29;20102;-82
2020/12/09 02:55:03;;;;;;;25.38;22.33;;;1.20;80.60;;;;;;5092001;29;20047;-83
2020/12/09 02:57:34;;;;;;;24.25;21.75;;;1.10;80.60;;;;;;5094046;29;20103;-82
2020/12/09 03:00:06;;;;;;;22.75;20.35;;;1.10;80.70;;;;;;5092007;29;20036;-81
2020/12/09 03:02:38;;;;;;;21.60;19.33;;;1.10;80.80;;;;;;5113303;28;20040;-83
2020/12/09 03:05:10;;;;;;;21.05;19.05;;;1.10;81.00;;;;;;5096405;29;20048;-84
2020/12/09 03:07:42;;;;;;;21.15;19.15;;;1.10;80.80;;;;;;5106507;28;20083;-83
2020/12/09 03:10:13;;;;;;;21.25;19.23;;;1.20;80.80;;;;;;5095503;29;20108;-83
2020/12/09 03:12:44;;;;;;;20.45;18.40;;;1.20;80.60;;;;;;5075669;29;20174;-80
2020/12/09 03:15:16;;;;;;;20.48;18.45;;;1.20;80.50;;;;;;5096904;29;20044;-81
2020/12/09 03:17:47;;;;;;;20.83;18.75;;;1.20;80.30;;;;;;5090732;29;20486;-84
2020/12/09 03:20:19;;;;;;;20.48;18.45;;;1.20;80.30;;;;;;5087069;29;20052;-82
2020/12/09 03:22:50;;;;;;;21.15;19.00;;;1.20;80.60;;;;;;5112335;28;20050;-82
2020/12/09 03:25:22;;;;;;;21.05;18.95;;;1.20;80.70;;;;;;5087195;29;20107;-85
2020/12/09 03:27:53;;;;;;;21.67;19.58;;;1.20;80.80;;;;;;5090043;29;20768;-82
2020/12/09 03:30:25;;;;;;;20.25;18.23;;;1.20;80.60;;;;;;5088765;29;20530;-83
2020/12/09 03:32:56;;;;;;;21.38;19.27;;;1.10;81.00;;;;;;5092058;29;20116;-83
2020/12/09 03:35:27;;;;;;;21.48;19.33;;;1.10;81.10;;;;;;5085859;29;20036;-83
2020/12/09 03:37:59;;;;;;;20.63;18.65;;;1.10;80.80;;;;;;5095741;29;20581;-84
2020/12/09 03:40:30;;;;;;;21.27;19.25;;;1.20;80.90;;;;;;5104175;28;20100;-84
2020/12/09 03:43:02;;;;;;;21.05;18.98;;;1.20;80.60;;;;;;5091932;29;20111;-84
2020/12/09 03:45:33;;;;;;;21.35;19.13;;;1.10;80.90;;;;;;5089797;29;20525;-84
2020/12/09 03:48:05;;;;;;;21.38;19.27;;;1.10;81.00;;;;;;5093337;29;20063;-83
2020/12/09 03:50:37;;;;;;;20.70;18.60;;;1.10;80.90;;;;;;5090760;29;20100;-82
2020/12/09 03:53:08;;;;;;;21.92;19.65;;;1.20;81.00;;;;;;5092063;29;20039;-84
2020/12/09 03:55:39;;;;;;;21.05;18.90;;;1.20;80.90;;;;;;5094082;29;20576;-83
2020/12/09 03:58:11;;;;;;;21.38;19.27;;;1.20;80.70;;;;;;5090153;29;20059;-82
2020/12/09 04:00:43;;;;;;;21.27;19.02;;;1.20;80.60;;;;;;5088537;29;20044;-84
2020/12/09 04:03:14;;;;;;;23.40;20.90;;;1.20;80.70;;;;;;5082110;29;20052;-82
2020/12/09 04:05:46;;;;;;;22.38;20.08;;;1.20;80.70;;;;;;5088266;29;20063;-82
2020/12/09 04:08:19;;;;;;;22.38;19.98;;;1.20;80.80;;;;;;5096936;29;20040;-82
2020/12/09 04:10:50;;;;;;;23.52;21.10;;;1.20;80.80;;;;;;5097048;29;20099;-82
2020/12/09 04:13:22;;;;;;;23.92;21.35;;;1.20;80.70;;;;;;5098832;29;20099;-83
2020/12/09 04:15:53;;;;;;;22.55;20.00;;;1.30;80.80;;;;;;5099028;29;20072;-82
2020/12/09 04:18:25;;;;;;;23.48;21.17;;;1.30;80.70;;;;;;5078998;29;20155;-82
2020/12/09 04:20:56;;;;;;;21.90;19.65;;;1.30;80.70;;;;;;5098016;29;20742;-83
2020/12/09 04:23:28;;;;;;;22.77;20.38;;;1.30;80.60;;;;;;5101699;28;20040;-83
2020/12/09 04:25:59;;;;;;;28.15;23.13;;;1.30;81.40;;;;;;5111688;28;20116;-82
2020/12/09 04:28:31;;;;;;;22.80;20.40;;;1.30;80.80;;;;;;5093792;29;20035;-83
2020/12/09 04:31:02;;;;;;;22.60;20.20;;;1.30;80.60;;;;;;5073897;29;20044;-83
2020/12/09 04:33:34;;;;;;;22.80;20.42;;;1.30;80.50;;;;;;5095394;29;20036;-82
2020/12/09 04:36:06;;;;;;;22.73;20.35;;;1.30;80.60;;;;;;5094502;29;20063;-83
2020/12/09 04:38:38;;;;;;;21.45;19.30;;;1.30;80.60;;;;;;5095199;29;20103;-82
2020/12/09 04:41:10;;;;;;;22.13;19.90;;;1.20;80.60;;;;;;5104130;29;20044;-83
2020/12/09 04:43:42;;;;;;;22.85;20.50;;;1.10;80.80;;;;;;5096166;29;20119;-83
2020/12/09 04:46:13;;;;;;;22.92;20.52;;;1.10;80.90;;;;;;5098530;29;20059;-82
2020/12/09 04:49:12;;;;;;;22.75;20.35;;;1.10;81.50;;;;;;5097172;29;20052;-83
2020/12/09 04:52:21;;;;;;;24.38;21.77;;;1.00;81.70;;;;;;5094492;29;20445;-84
2020/12/09 04:55:09;;;;;;;25.13;21.20;;;1.00;82.10;;;;;;5097181;29;20795;-83
2020/12/09 04:58:02;;;;;;;23.98;21.33;;;0.90;82.10;;;;;;5095552;29;20048;-83
2020/12/09 05:00:34;;;;;;;24.42;21.83;;;1.00;81.80;;;;;;5095924;29;20052;-84
2020/12/09 05:03:17;;;;;;;23.52;21.00;;;1.00;81.70;;;;;;5094194;29;20043;-83
2020/12/09 05:05:48;;;;;;;23.45;20.45;;;1.00;81.60;;;;;;5096309;28;20107;-83
2020/12/09 05:08:22;;;;;;;23.40;20.95;;;1.10;82.30;;;;;;5112311;28;20827;-85
2020/12/09 05:10:54;;;;;;;21.88;19.63;;;1.20;81.20;;;;;;5101498;29;20052;-83
2020/12/09 05:13:26;;;;;;;23.08;20.58;;;1.20;80.80;;;;;;5085936;29;20111;-83
2020/12/09 05:15:58;;;;;;;23.90;21.40;;;1.20;80.80;;;;;;5101321;29;20052;-84
2020/12/09 05:18:41;;;;;;;23.88;21.33;;;1.20;80.80;;;;;;5110137;28;20103;-84
2020/12/09 05:21:21;;;;;;;23.13;20.67;;;1.20;80.90;;;;;;5098059;29;20541;-84
2020/12/09 05:23:57;;;;;;;22.07;19.77;;;1.20;80.90;;;;;;5094221;29;20036;-84
2020/12/09 05:26:31;;;;;;;22.35;19.90;;;1.20;80.70;;;;;;5101812;29;20354;-85
2020/12/09 05:29:03;;;;;;;21.83;19.63;;;1.20;80.80;;;;;;5102559;29;20047;-84
2020/12/09 05:31:40;;;;;;;21.92;19.60;;;1.10;80.90;;;;;;5095043;29;20055;-84
2020/12/09 05:34:18;;;;;;;21.40;19.15;;;1.10;80.90;;;;;;5095082;29;20417;-84
2020/12/09 05:36:51;;;;;;;21.13;18.92;;;1.10;81.10;;;;;;5120394;28;20060;-84
2020/12/09 05:39:23;;;;;;;21.90;19.70;;;1.10;81.10;;;;;;5095351;29;20529;-84
2020/12/09 05:41:56;;;;;;;22.05;19.75;;;1.10;81.10;;;;;;5081116;29;20079;-84
2020/12/09 05:44:27;;;;;;;20.98;18.88;;;1.10;81.00;;;;;;5109107;28;20123;-84
2020/12/09 05:47:03;;;;;;;21.27;19.10;;;1.20;80.90;;;;;;5104209;29;20071;-84
2020/12/09 05:49:37;;;;;;;20.95;18.75;;;1.20;80.80;;;;;;5097663;29;20055;-84
2020/12/09 05:52:19;;;;;;;21.63;19.42;;;1.20;80.70;;;;;;5094007;29;20048;-85
2020/12/09 05:54:52;;;;;;;22.15;19.88;;;1.20;80.50;;;;;;5097536;29;20722;-84
2020/12/09 05:57:26;;;;;;;20.60;18.60;;;1.20;80.40;;;;;;5103935;29;20048;-84
2020/12/09 05:59:57;;;;;;;20.73;18.60;;;1.20;80.50;;;;;;5098723;29;20032;-83
2020/12/09 06:02:29;;;;;;;21.23;19.02;;;1.20;80.60;;;;;;5095268;29;20043;-83
2020/12/09 06:05:02;;;;;;;21.60;18.90;;;1.30;80.60;;;;;;5097199;29;20126;-83
2020/12/09 06:07:34;;;;;;;21.27;19.08;;;1.30;80.40;;;;;;5095841;29;20075;-83
2020/12/09 06:10:19;;;;;;;21.85;19.65;;;1.30;80.40;;;;;;5111518;28;20644;-81
2020/12/09 06:13:01;;;;;;;21.25;19.15;;;1.20;80.60;;;;;;5094527;29;20067;-82
2020/12/09 06:15:33;;;;;;;21.13;19.02;;;1.20;80.80;;;;;;5098937;29;20067;-80
2020/12/09 06:18:13;;;;;;;22.92;20.52;;;1.20;80.80;;;;;;5097714;29;20047;-80
2020/12/09 06:20:50;;;;;;;22.08;19.75;;;1.20;80.80;;;;;;5089703;29;20100;-80
2020/12/09 06:23:23;;;;;;;22.40;20.00;;;1.10;80.90;;;;;;5085590;29;20055;-85
2020/12/09 06:25:56;;;;;;;22.45;20.05;;;1.10;81.10;;;;;;5110021;28;20048;-83
2020/12/09 06:28:30;;;;;;;21.85;19.55;;;1.10;81.00;;;;;;5094039;29;20107;-83
2020/12/09 06:31:17;;;;;;;21.25;19.08;;;1.10;80.80;;;;;;5094704;29;20036;-82
2020/12/09 06:33:51;;;;;;;24.08;20.65;;;1.10;80.80;;;;;;5094613;29;20044;-83
2020/12/09 06:36:30;;;;;;;23.50;20.90;;;1.00;81.50;;;;;;5092431;29;20047;-80
2020/12/09 06:39:07;;;;;;;22.77;20.35;;;0.90;82.70;;;;;;5099044;28;20051;-81
2020/12/09 06:41:46;;;;;;;22.75;20.33;;;0.90;82.00;;;;;;5090371;29;20095;-81
2020/12/09 06:44:18;;;;;;;24.98;21.90;;;1.00;81.60;;;;;;5087332;29;20475;-81
2020/12/09 06:46:51;;;;;;;23.98;21.27;;;1.10;81.60;;;;;;5063114;29;20048;-81
2020/12/09 06:49:32;;;;;;;23.50;20.58;;;1.10;81.20;;;;;;5093558;29;20059;-81
2020/12/09 06:52:10;;;;;;;31.70;22.70;;;1.10;81.10;;;;;;5090652;29;20046;-81
2020/12/09 06:54:46;;;;;;;25.20;21.25;;;1.20;81.00;;;;;;5095050;29;20063;-81
2020/12/09 06:57:22;;;;;;;23.50;20.55;;;1.20;80.90;;;;;;5090151;29;20051;-81
2020/12/09 07:00:18;;;;;;;23.13;20.65;;;1.10;80.90;;;;;;5088926;29;20044;-81
2020/12/09 07:02:51;;;;;;;21.88;19.08;;;1.10;80.80;;;;;;5088092;29;20052;-81
2020/12/09 07:05:28;;;;;;;21.08;18.65;;;1.10;81.00;;;;;;5085235;29;20044;-81
2020/12/09 07:08:05;;;;;;;24.50;19.85;;;1.00;81.00;;;;;;5094952;29;20063;-81
2020/12/09 07:10:37;;;;;;;21.80;18.73;;;1.10;81.40;;;;;;5103411;28;20048;-81
2020/12/09 07:13:13;;;;;;;20.67;18.48;;;1.10;80.90;;;;;;5102221;28;20044;-82
2020/12/09 07:15:50;;;;;;;21.48;18.17;;;1.20;80.80;;;;;;5111278;28;20698;-81
2020/12/09 07:18:22;;;;;;;20.83;18.63;;;1.20;80.90;;;;;;5086487;29;20127;-79
2020/12/09 07:20:58;;;;;;;20.20;18.10;;;1.20;80.80;;;;;;5095639;29;20075;-81
2020/12/09 07:23:29;;;;;;;21.23;18.98;;;1.20;80.70;;;;;;5089711;29;20127;-80
2020/12/09 07:26:01;;;;;;;21.42;18.77;;;1.20;80.80;;;;;;5095396;29;20185;-82
2020/12/09 07:28:33;;;;;;;22.55;18.95;;;1.20;80.80;;;;;;5088160;29;20096;-81
2020/12/09 07:31:09;;;;;;;21.15;18.20;;;1.20;80.70;;;;;;5089313;29;20048;-81
2020/12/09 07:33:41;;;;;;;20.80;18.58;;;1.30;80.90;;;;;;5090039;29;20056;-81
2020/12/09 07:36:12;;;;;;;21.05;18.27;;;1.30;80.80;;;;;;5094537;29;20039;-81
2020/12/09 07:38:44;;;;;;;22.23;18.65;;;1.30;80.80;;;;;;5091518;29;20418;-81
2020/12/09 07:41:16;;;;;;;20.00;17.33;;;1.30;80.70;;;;;;5104026;28;20044;-81
2020/12/09 07:43:50;;;;;;;20.35;18.20;;;1.40;80.70;;;;;;5095690;29;20067;-81
2020/12/09 07:46:22;;;;;;;20.92;18.73;;;1.30;80.60;;;;;;5087321;29;20040;-81
2020/12/09 07:48:53;;;;;;;22.85;19.75;;;1.40;80.50;;;;;;5089554;29;20044;-81
2020/12/09 07:51:28;;;;;;;21.65;18.38;;;1.40;80.30;;;;;;5110884;28;20043;-81
2020/12/09 07:54:00;;;;;;;24.67;20.35;;;1.40;80.30;;;;;;5091566;29;20055;-81
2020/12/09 07:56:31;;;;;;;21.98;19.60;;;1.40;80.20;;;;;;5091854;29;20063;-81
2020/12/09 07:59:03;;;;;;;24.65;20.55;;;1.40;80.10;;;;;;5098843;29;20071;-82
2020/12/09 08:01:35;;;;;;;21.17;18.75;;;1.40;80.00;;;;;;5091278;29;20148;-81
2020/12/09 08:04:09;;;;;;;22.33;18.08;;;1.40;79.90;;;;;;5115308;28;20048;-81
2020/12/09 08:06:41;;;;;;;21.65;18.83;;;1.40;80.20;;;;;;5092325;29;20036;-81
2020/12/09 08:09:15;;;;;;;21.77;19.20;;;1.30;80.10;;;;;;5091957;29;20044;-81
2020/12/09 08:11:47;;;;;;;21.52;18.75;;;1.30;80.30;;;;;;5092897;29;20099;-82
2020/12/09 08:14:19;;;;;;;21.80;19.38;;;1.30;80.40;;;;;;5081927;29;20329;-82
2020/12/09 08:16:52;;;;;;;23.10;19.90;;;1.30;80.60;;;;;;5094640;29;20056;-82
2020/12/09 08:19:24;;;;;;;22.48;19.63;;;1.30;80.60;;;;;;5091628;29;20122;-81
2020/12/09 08:22:05;;;;;;;21.25;18.95;;;1.30;80.50;;;;;;5098953;29;20099;-81
2020/12/09 08:24:37;;;;;;;23.55;19.85;;;1.40;80.60;;;;;;5094835;29;20036;-81
2020/12/09 08:27:19;;;;;;;21.80;19.50;;;1.50;80.70;;;;;;5101625;28;20550;-82
2020/12/09 08:29:51;;;;;;;21.42;19.13;;;1.50;80.60;;;;;;5098465;29;20055;-81
2020/12/09 08:32:23;;;;;;;23.98;19.85;;;1.50;80.50;;;;;;5097825;29;20067;-81
2020/12/09 08:35:14;;;;;;;22.10;19.42;;;1.50;80.20;;;;;;5097135;29;20624;-81
2020/12/09 08:37:46;;;;;;;21.92;19.05;;;1.60;80.30;;;;;;5096159;29;20048;-82
2020/12/09 08:40:17;;;;;;;21.35;18.80;;;1.50;80.40;;;;;;5084973;29;20453;-82
2020/12/09 08:42:51;;;;;;;23.85;19.10;;;1.60;81.30;;;;;;5111228;28;20078;-81
2020/12/09 08:45:22;;;;;;;22.48;19.52;;;1.60;80.50;;;;;;5096461;29;20388;-81
2020/12/09 08:47:54;;;;;;;23.33;20.25;;;1.60;80.50;;;;;;5096858;29;20067;-82
2020/12/09 08:50:25;;;;;;;22.17;19.77;;;1.70;80.60;;;;;;5098289;29;20683;-81
2020/12/09 08:52:57;;;;;;;21.25;19.05;;;1.70;80.50;;;;;;5114233;28;20044;-81
2020/12/09 08:55:28;;;;;;;22.55;18.98;;;1.80;80.50;;;;;;5078512;29;20506;-82
2020/12/09 08:57:59;;;;;;;21.33;18.85;;;1.80;80.50;;;;;;5095476;29;20709;-81
2020/12/09 09:00:33;;;;;;;20.45;18.13;;;1.80;80.40;;;;;;5093041;29;20413;-81
2020/12/09 09:03:06;;;;;;;21.67;19.35;;;1.90;80.30;;;;;;5092844;29;20126;-81
2020/12/09 09:05:40;;;;;;;22.67;19.52;;;1.90;80.40;;;;;;5096648;29;20106;-81
2020/12/09 09:08:13;;;;;;;21.77;19.48;;;1.90;80.30;;;;;;5091715;29;20058;-81
2020/12/09 09:10:45;;;;;;;24.17;20.20;;;1.90;80.40;;;;;;5095323;29;20112;-80
2020/12/09 09:13:17;;;;;;;21.33;19.00;;;1.90;80.20;;;;;;5098059;29;20043;-81
2020/12/09 09:15:48;;;;;;;22.50;18.55;;;2.00;80.00;;;;;;5111743;28;20048;-81
2020/12/09 09:18:20;;;;;;;21.88;18.88;;;1.90;79.90;;;;;;5110506;28;20055;-81
2020/12/09 09:20:53;;;;;;;22.08;19.75;;;2.00;79.90;;;;;;5094211;29;20410;-81
2020/12/09 09:23:25;;;;;;;21.65;18.23;;;2.00;80.10;;;;;;5096653;29;20075;-81
2020/12/09 09:26:14;;;;;;;20.83;18.55;;;2.00;80.20;;;;;;5110750;28;20052;-81
2020/12/09 09:28:46;;;;;;;20.88;18.40;;;2.00;80.30;;;;;;5110386;28;20075;-82
2020/12/09 09:31:17;;;;;;;20.65;18.48;;;2.10;80.20;;;;;;5094795;29;20036;-81
2020/12/09 09:33:49;;;;;;;21.88;19.27;;;2.10;80.30;;;;;;5093013;29;20055;-81
2020/12/09 09:36:20;;;;;;;23.00;20.60;;;2.10;80.20;;;;;;5096145;29;20071;-81
2020/12/09 09:38:52;;;;;;;21.45;19.25;;;2.10;80.00;;;;;;5092460;29;20044;-80
2020/12/09 09:41:23;;;;;;;22.48;20.08;;;2.20;80.10;;;;;;5094626;29;20067;-81
2020/12/09 09:43:55;;;;;;;22.52;19.60;;;2.20;80.20;;;;;;5092079;29;20655;-81
2020/12/09 09:46:26;;;;;;;22.75;20.00;;;2.20;80.20;;;;;;5096409;29;20043;-81
2020/12/09 09:48:58;;;;;;;22.08;19.60;;;2.20;80.20;;;;;;5093329;29;20036;-81
2020/12/09 09:51:29;;;;;;;21.52;19.20;;;2.20;80.00;;;;;;5097951;29;20047;-80
2020/12/09 09:54:01;;;;;;;22.50;20.17;;;2.30;80.20;;;;;;5093130;29;20036;-81
2020/12/09 09:56:32;;;;;;;22.98;19.80;;;2.30;80.20;;;;;;5090121;29;20059;-81
2020/12/09 09:59:04;;;;;;;22.20;19.85;;;2.30;80.10;;;;;;5098615;29;20495;-81
2020/12/09 10:01:36;;;;;;;21.95;19.60;;;2.40;80.00;;;;;;5092185;29;20051;-81
2020/12/09 10:04:08;;;;;;;21.45;19.13;;;2.40;80.00;;;;;;5094328;29;20095;-81
2020/12/09 10:06:40;;;;;;;21.27;18.98;;;2.40;79.90;;;;;;5093271;29;20054;-81
2020/12/09 10:09:11;;;;;;;22.20;19.02;;;2.40;79.90;;;;;;5097342;29;20044;-81
2020/12/09 10:11:43;;;;;;;22.48;19.70;;;2.50;79.90;;;;;;5091863;29;20506;-81
2020/12/09 10:14:14;;;;;;;21.77;19.48;;;2.50;79.80;;;;;;5093223;29;20510;-81
2020/12/09 10:16:47;;;;;;;22.75;20.13;;;2.50;79.80;;;;;;5089818;29;20518;-82
2020/12/09 10:19:18;;;;;;;20.02;17.98;;;2.60;79.60;;;;;;5107556;28;20039;-81
2020/12/09 10:21:50;;;;;;;21.45;19.25;;;2.60;79.50;;;;;;5093757;29;20052;-81
2020/12/09 10:24:21;;;;;;;19.85;17.88;;;2.60;79.60;;;;;;5095131;29;20040;-81
2020/12/09 10:26:54;;;;;;;19.77;17.67;;;2.60;79.40;;;;;;5095589;29;20052;-81
2020/12/09 10:29:25;;;;;;;19.60;17.60;;;2.70;79.70;;;;;;5112372;28;20058;-81
2020/12/09 10:31:56;;;;;;;19.88;17.77;;;2.70;80.30;;;;;;5090516;29;20557;-81
2020/12/09 10:34:28;;;;;;;20.77;18.60;;;2.80;79.50;;;;;;5095100;29;20047;-81
2020/12/09 10:37:00;;;;;;;19.85;17.83;;;2.80;79.40;;;;;;5093997;29;20489;-81
2020/12/09 10:39:31;;;;;;;19.42;17.50;;;2.90;79.40;;;;;;5106225;28;20047;-81
2020/12/09 10:42:03;;;;;;;18.45;16.65;;;2.90;79.10;;;;;;5095891;29;20051;-82
2020/12/09 10:44:35;;;;;;;17.27;15.68;;;2.90;79.40;;;;;;5106558;28;20056;-81
2020/12/09 10:47:06;;;;;;;17.70;16.10;;;3.00;79.20;;;;;;5096608;29;20044;-81
2020/12/09 10:49:43;;;;;;;17.15;15.55;;;3.00;79.00;;;;;;5092063;29;20095;-81
2020/12/09 10:52:15;;;;;;;17.20;15.60;;;3.00;78.90;;;;;;5094987;29;20067;-81
2020/12/09 10:54:46;;;;;;;16.33;14.82;;;3.00;78.90;;;;;;5112783;28;20047;-81
2020/12/09 10:57:18;;;;;;;16.65;15.15;;;3.10;78.90;;;;;;5099604;29;20043;-82
2020/12/09 10:59:50;;;;;;;15.93;14.48;;;3.10;78.70;;;;;;5091116;29;20044;-80
2020/12/09 11:02:22;;;;;;;15.60;14.20;;;3.10;78.60;;;;;;5095662;29;20092;-81
2020/12/09 11:04:53;;;;;;;15.88;14.40;;;3.20;78.40;;;;;;5094736;29;20091;-81
2020/12/09 11:07:25;;;;;;;16.17;14.68;;;3.20;78.20;;;;;;5093218;29;20447;-82
2020/12/09 11:09:56;;;;;;;17.35;15.85;;;3.20;78.40;;;;;;5092748;29;20300;-81
2020/12/09 11:12:28;;;;;;;15.68;14.27;;;3.20;77.70;;;;;;5077677;29;20043;-82
2020/12/09 11:15:00;;;;;;;16.02;14.60;;;3.20;78.00;;;;;;5106456;28;20395;-81
2020/12/09 11:17:33;;;;;;;15.07;13.68;;;3.20;77.50;;;;;;5076255;29;20052;-81
2020/12/09 11:20:05;;;;;;;13.30;12.20;;;3.20;77.40;;;;;;5095520;29;20135;-81
2020/12/09 11:22:36;;;;;;;13.60;12.43;;;3.20;77.20;;;;;;5107688;28;20056;-81
2020/12/09 11:25:08;;;;;;;12.82;11.82;;;3.30;77.40;;;;;;5096345;29;20066;-81
2020/12/09 11:27:39;;;;;;;12.80;11.80;;;3.30;77.40;;;;;;5093877;29;20044;-80
2020/12/09 11:30:12;;;;;;;12.50;11.50;;;3.30;77.40;;;;;;5089702;29;20062;-81
2020/12/09 11:32:43;;;;;;;12.18;11.18;;;3.40;77.20;;;;;;5075492;29;20035;-81
2020/12/09 11:35:15;;;;;;;11.73;10.82;;;3.40;77.60;;;;;;5095681;29;20143;-78
2020/12/09 11:37:47;;;;;;;11.68;10.77;;;3.50;76.60;;;;;;5093313;29;20435;-79
2020/12/09 11:40:23;;;;;;;12.80;11.80;;;3.50;76.30;;;;;;5094709;29;20746;-81
2020/12/09 11:42:55;;;;;;;12.35;11.32;;;3.40;76.60;;;;;;5096232;29;20044;-80
2020/12/09 11:45:26;;;;;;;12.55;11.52;;;3.50;76.80;;;;;;5057942;29;20054;-79
2020/12/09 11:47:58;;;;;;;13.60;12.40;;;3.50;76.50;;;;;;5087835;29;20298;-80
2020/12/09 11:50:29;;;;;;;12.65;11.65;;;3.50;76.50;;;;;;5072204;29;20449;-79
2020/12/09 11:53:01;;;;;;;12.65;11.65;;;3.50;76.60;;;;;;5078737;29;20412;-80
2020/12/09 11:55:32;;;;;;;12.20;11.20;;;3.50;76.30;;;;;;5107869;28;20486;-80
2020/12/09 11:58:04;;;;;;;12.20;11.20;;;3.50;76.30;;;;;;5104088;28;20043;-80
2020/12/09 12:00:36;;;;;;;12.65;11.55;;;3.50;76.40;;;;;;5103961;28;20063;-79
2020/12/09 12:03:09;;;;;;;13.35;12.15;;;3.50;76.20;;;;;;5092392;29;20048;-79
2020/12/09 12:05:42;;;;;;;12.68;11.68;;;3.50;76.10;;;;;;5106106;28;20406;-78
2020/12/09 12:08:14;;;;;;;13.90;12.73;;;3.50;76.00;;;;;;5089733;29;20391;-79
2020/12/09 12:10:46;;;;;;;12.60;11.60;;;3.50;76.00;;;;;;5093375;29;20124;-78
2020/12/09 12:13:17;;;;;;;12.27;11.30;;;3.50;76.00;;;;;;5095647;29;20841;-78
2020/12/09 12:15:48;;;;;;;12.50;11.60;;;3.50;76.20;;;;;;5093139;29;20047;-78
2020/12/09 12:18:20;;;;;;;12.13;11.15;;;3.40;75.80;;;;;;5107824;28;20775;-78
2020/12/09 12:20:51;;;;;;;11.88;10.95;;;3.40;75.50;;;;;;5088748;29;20056;-79
2020/12/09 12:23:23;;;;;;;11.57;10.68;;;3.40;76.60;;;;;;5094153;29;20107;-78
2020/12/09 12:25:57;;;;;;;11.82;10.93;;;3.40;76.10;;;;;;5090592;29;20032;-79
2020/12/09 12:28:29;;;;;;;12.13;11.23;;;3.30;76.00;;;;;;5090852;29;20051;-78
2020/12/09 12:31:00;;;;;;;12.63;11.63;;;3.40;76.10;;;;;;5091642;29;20063;-80
2020/12/09 12:33:32;;;;;;;12.75;11.75;;;3.30;76.00;;;;;;5089608;29;20047;-78
2020/12/09 12:36:04;;;;;;;11.90;10.98;;;3.30;76.00;;;;;;5093543;29;20052;-78
2020/12/09 12:38:36;;;;;;;12.60;11.60;;;3.40;76.50;;;;;;5110689;28;20762;-78
2020/12/09 12:41:08;;;;;;;14.95;13.65;;;3.40;76.30;;;;;;5092960;29;20075;-79
2020/12/09 12:43:42;;;;;;;19.92;16.95;;;3.50;76.20;;;;;;5099374;29;20044;-78
2020/12/09 12:46:13;;;;;;;16.33;14.82;;;3.60;76.10;;;;;;5095698;29;20035;-78
2020/12/09 12:48:48;;;;;;;15.32;13.82;;;3.60;75.50;;;;;;5096206;29;20103;-80
2020/12/09 12:51:23;;;;;;;17.73;15.68;;;3.70;75.60;;;;;;5095898;29;20305;-80
2020/12/09 12:53:55;;;;;;;36.58;23.58;;;3.70;75.30;;;;;;5112589;28;20536;-77
2020/12/09 12:56:26;;;;;;;16.52;14.95;;;3.80;75.40;;;;;;5110906;28;20100;-77
2020/12/09 12:58:58;;;;;;;17.15;15.45;;;3.80;75.10;;;;;;5097390;29;20060;-78
2020/12/09 13:01:30;;;;;;;23.60;20.95;;;3.90;75.30;;;;;;5093942;29;20047;-78
2020/12/09 13:04:03;;;;;;;25.42;21.63;;;3.80;75.00;;;;;;5109084;28;20052;-78
2020/12/09 13:06:34;;;;;;;16.27;14.77;;;3.80;74.90;;;;;;5107851;28;20429;-79
2020/12/09 13:09:05;;;;;;;13.38;12.27;;;3.80;75.10;;;;;;5093542;29;20047;-78